RYR4PY LPPR-EGSS
Flight info
| Callsign | RYR4PY |
|---|---|
| Flight time | N/A |
| Altitude | 38000 |
| Route | TURON P600 ASDEB DCT LOTEE DCT OZNOH DCT ARTIV DCT DIKRO UM185 DESNA M185 TELTU |
| Aircraft | B38M/M-SDE1FGHILORVWXY/HB1 |
Departure
| Time | N/A |
|---|---|
| Airport | Francisco de Sá Carneiro Airport (LPPR) |
Arrival
| Time | 2026-05-06 14:24 |
|---|---|
| Airport | London Stansted Airport (EGSS) |
| Time | Latitude | Longitude | Altitude | Speed | Heading |
|---|---|---|---|---|---|
| 2026-05-06 12:31 | 42.23122 | -8.53823 | 27464 ft | 416 kts | 5° |
| 2026-05-06 12:31 | 42.25995 | -8.53356 | 28002 ft | 415 kts | 5° |
| 2026-05-06 12:31 | 42.28889 | -8.52885 | 28348 ft | 419 kts | 5° |
| 2026-05-06 12:32 | 42.31754 | -8.52419 | 28743 ft | 421 kts | 5° |
| 2026-05-06 12:32 | 42.34666 | -8.51945 | 29132 ft | 423 kts | 5° |
| 2026-05-06 12:32 | 42.37612 | -8.51465 | 29501 ft | 426 kts | 5° |
| 2026-05-06 12:32 | 42.40564 | -8.50984 | 29876 ft | 429 kts | 5° |
| 2026-05-06 12:33 | 42.43532 | -8.50499 | 30217 ft | 431 kts | 5° |
| 2026-05-06 12:33 | 42.46528 | -8.50010 | 30514 ft | 433 kts | 5° |
| 2026-05-06 12:33 | 42.49505 | -8.49398 | 30809 ft | 437 kts | 13° |
| 2026-05-06 12:33 | 42.52317 | -8.47802 | 31151 ft | 441 kts | 30° |
| 2026-05-06 12:34 | 42.54777 | -8.45263 | 31418 ft | 446 kts | 39° |
| 2026-05-06 12:34 | 42.57128 | -8.42569 | 31643 ft | 449 kts | 39° |
| 2026-05-06 12:34 | 42.59507 | -8.39807 | 31951 ft | 451 kts | 39° |
| 2026-05-06 12:34 | 42.61884 | -8.37014 | 32226 ft | 453 kts | 40° |
| 2026-05-06 12:35 | 42.64273 | -8.34187 | 32499 ft | 456 kts | 40° |
| 2026-05-06 12:35 | 42.66669 | -8.31346 | 32785 ft | 457 kts | 39° |
| 2026-05-06 12:35 | 42.69068 | -8.28497 | 33072 ft | 459 kts | 39° |
| 2026-05-06 12:35 | 42.71478 | -8.25631 | 33356 ft | 461 kts | 39° |
| 2026-05-06 12:36 | 42.73083 | -8.23720 | 33615 ft | 460 kts | 39° |
| 2026-05-06 12:36 | 42.75494 | -8.20848 | 34031 ft | 459 kts | 39° |
| 2026-05-06 12:36 | 42.77894 | -8.17987 | 34344 ft | 458 kts | 39° |
| 2026-05-06 12:36 | 42.80292 | -8.15124 | 34608 ft | 459 kts | 39° |
| 2026-05-06 12:37 | 42.82692 | -8.12257 | 34907 ft | 459 kts | 39° |
| 2026-05-06 12:37 | 42.85094 | -8.09383 | 35178 ft | 459 kts | 39° |
| 2026-05-06 12:37 | 42.87492 | -8.06511 | 35454 ft | 460 kts | 39° |
| 2026-05-06 12:37 | 42.89890 | -8.03636 | 35722 ft | 460 kts | 39° |
| 2026-05-06 12:38 | 42.92290 | -8.00755 | 35989 ft | 460 kts | 39° |
| 2026-05-06 12:38 | 42.94671 | -7.97895 | 36233 ft | 460 kts | 39° |
| 2026-05-06 12:38 | 42.97075 | -7.95003 | 36495 ft | 461 kts | 39° |
| 2026-05-06 12:38 | 42.99482 | -7.92105 | 36758 ft | 461 kts | 39° |
| 2026-05-06 12:39 | 43.01889 | -7.89204 | 36994 ft | 461 kts | 39° |
| 2026-05-06 12:39 | 43.04295 | -7.86301 | 37226 ft | 461 kts | 39° |
| 2026-05-06 12:39 | 43.06699 | -7.83396 | 37439 ft | 461 kts | 39° |
| 2026-05-06 12:39 | 43.09104 | -7.80489 | 37674 ft | 462 kts | 39° |
| 2026-05-06 12:40 | 43.11508 | -7.77578 | 37884 ft | 462 kts | 39° |
| 2026-05-06 12:40 | 43.13914 | -7.74662 | 38039 ft | 463 kts | 39° |
| 2026-05-06 12:40 | 43.18710 | -7.68839 | 38039 ft | 461 kts | 40° |
| 2026-05-06 12:41 | 43.23505 | -7.63006 | 38039 ft | 461 kts | 40° |
| 2026-05-06 12:41 | 43.28287 | -7.57175 | 38036 ft | 461 kts | 40° |
| 2026-05-06 12:42 | 43.33080 | -7.51318 | 38039 ft | 461 kts | 40° |
| 2026-05-06 12:42 | 43.37873 | -7.45448 | 38037 ft | 461 kts | 40° |
| 2026-05-06 12:43 | 43.42645 | -7.39591 | 38035 ft | 461 kts | 40° |
| 2026-05-06 12:43 | 43.47429 | -7.33707 | 38043 ft | 461 kts | 40° |
| 2026-05-06 12:44 | 43.52210 | -7.27813 | 38042 ft | 461 kts | 40° |
| 2026-05-06 12:44 | 43.56953 | -7.21952 | 38042 ft | 461 kts | 40° |
| 2026-05-06 12:45 | 43.61722 | -7.16047 | 38063 ft | 460 kts | 40° |
| 2026-05-06 12:46 | 43.68859 | -7.07185 | 38043 ft | 460 kts | 40° |
| 2026-05-06 12:46 | 43.73611 | -7.01268 | 38046 ft | 460 kts | 40° |
| 2026-05-06 12:47 | 43.78365 | -6.95335 | 38042 ft | 460 kts | 40° |
| 2026-05-06 12:47 | 43.83080 | -6.89439 | 38052 ft | 460 kts | 40° |
| 2026-05-06 12:48 | 43.87819 | -6.83498 | 38041 ft | 459 kts | 40° |
| 2026-05-06 12:48 | 43.92568 | -6.77532 | 38040 ft | 459 kts | 40° |
| 2026-05-06 12:49 | 43.97285 | -6.71591 | 38039 ft | 459 kts | 40° |
| 2026-05-06 12:49 | 44.02011 | -6.65627 | 38037 ft | 460 kts | 40° |
| 2026-05-06 12:50 | 44.06743 | -6.59642 | 38040 ft | 459 kts | 40° |
| 2026-05-06 12:50 | 44.11462 | -6.53659 | 38041 ft | 459 kts | 40° |
| 2026-05-06 12:51 | 44.16178 | -6.47668 | 38037 ft | 459 kts | 40° |
| 2026-05-06 12:51 | 44.20886 | -6.41672 | 38038 ft | 459 kts | 40° |
| 2026-05-06 12:52 | 44.25600 | -6.35656 | 38044 ft | 459 kts | 41° |
| 2026-05-06 12:52 | 44.30269 | -6.29683 | 38036 ft | 458 kts | 41° |
| 2026-05-06 12:53 | 44.34975 | -6.23649 | 38037 ft | 458 kts | 41° |
| 2026-05-06 12:53 | 44.39664 | -6.17624 | 38037 ft | 459 kts | 41° |
| 2026-05-06 12:54 | 44.44355 | -6.11581 | 38037 ft | 459 kts | 41° |
| 2026-05-06 12:54 | 44.49052 | -6.05521 | 38035 ft | 458 kts | 41° |
| 2026-05-06 12:55 | 44.53703 | -5.99506 | 38034 ft | 458 kts | 41° |
| 2026-05-06 12:55 | 44.58387 | -5.93436 | 38035 ft | 458 kts | 41° |
| 2026-05-06 12:56 | 44.63069 | -5.87353 | 38034 ft | 458 kts | 41° |
| 2026-05-06 12:56 | 44.68117 | -5.82017 | 38047 ft | 451 kts | 24° |
| 2026-05-06 12:57 | 44.73616 | -5.77683 | 38050 ft | 455 kts | 28° |
| 2026-05-06 12:57 | 44.79075 | -5.73266 | 38030 ft | 455 kts | 28° |
| 2026-05-06 12:58 | 44.84572 | -5.68821 | 38038 ft | 455 kts | 28° |
| 2026-05-06 12:58 | 44.90049 | -5.64380 | 38033 ft | 454 kts | 28° |
| 2026-05-06 12:59 | 44.95516 | -5.59939 | 38032 ft | 454 kts | 28° |
| 2026-05-06 12:59 | 45.00985 | -5.55486 | 38031 ft | 454 kts | 28° |
| 2026-05-06 13:00 | 45.06459 | -5.51020 | 38034 ft | 454 kts | 28° |
| 2026-05-06 13:00 | 45.11923 | -5.46551 | 38034 ft | 454 kts | 28° |
| 2026-05-06 13:01 | 45.17376 | -5.42081 | 38035 ft | 454 kts | 28° |
| 2026-05-06 13:01 | 45.22835 | -5.37597 | 38037 ft | 453 kts | 28° |
| 2026-05-06 13:02 | 45.28254 | -5.33134 | 38035 ft | 453 kts | 28° |
| 2026-05-06 13:02 | 45.33698 | -5.28643 | 38031 ft | 453 kts | 28° |
| 2026-05-06 13:03 | 45.39128 | -5.24151 | 38029 ft | 453 kts | 28° |
| 2026-05-06 13:03 | 45.44589 | -5.19625 | 38028 ft | 453 kts | 28° |
| 2026-05-06 13:04 | 45.48198 | -5.16627 | 38034 ft | 453 kts | 28° |
| 2026-05-06 13:04 | 45.55481 | -5.10566 | 38029 ft | 453 kts | 28° |
| 2026-05-06 13:05 | 45.60881 | -5.06060 | 38033 ft | 453 kts | 28° |
| 2026-05-06 13:05 | 45.66316 | -5.01513 | 38028 ft | 452 kts | 28° |
| 2026-05-06 13:06 | 45.71748 | -4.96959 | 38026 ft | 452 kts | 28° |
| 2026-05-06 13:06 | 45.77173 | -4.92401 | 38024 ft | 452 kts | 28° |
| 2026-05-06 13:07 | 45.82600 | -4.87831 | 38017 ft | 452 kts | 28° |
| 2026-05-06 13:07 | 45.88016 | -4.83259 | 38028 ft | 453 kts | 28° |
| 2026-05-06 13:08 | 45.93439 | -4.78671 | 38023 ft | 452 kts | 28° |
| 2026-05-06 13:08 | 45.98868 | -4.74068 | 38025 ft | 452 kts | 28° |
| 2026-05-06 13:09 | 46.04283 | -4.69466 | 38018 ft | 452 kts | 28° |
| 2026-05-06 13:09 | 46.09667 | -4.64880 | 38025 ft | 452 kts | 28° |
| 2026-05-06 13:10 | 46.15078 | -4.60260 | 38017 ft | 452 kts | 28° |
| 2026-05-06 13:10 | 46.20491 | -4.55627 | 38015 ft | 452 kts | 28° |
| 2026-05-06 13:11 | 46.25891 | -4.50995 | 38012 ft | 452 kts | 28° |
| 2026-05-06 13:11 | 46.31300 | -4.46344 | 38011 ft | 452 kts | 29° |
| 2026-05-06 13:12 | 46.36704 | -4.41687 | 38005 ft | 452 kts | 29° |
| 2026-05-06 13:12 | 46.42077 | -4.37045 | 38003 ft | 452 kts | 29° |
| 2026-05-06 13:13 | 46.47481 | -4.32366 | 38001 ft | 452 kts | 29° |
| 2026-05-06 13:13 | 46.52886 | -4.27675 | 38006 ft | 452 kts | 29° |
| 2026-05-06 13:14 | 46.58262 | -4.22999 | 38000 ft | 452 kts | 29° |
| 2026-05-06 13:14 | 46.63658 | -4.18294 | 38002 ft | 452 kts | 29° |
| 2026-05-06 13:15 | 46.69041 | -4.13591 | 37998 ft | 452 kts | 29° |
| 2026-05-06 13:15 | 46.74431 | -4.08869 | 38000 ft | 452 kts | 29° |
| 2026-05-06 13:16 | 46.79827 | -4.04131 | 38001 ft | 452 kts | 29° |
| 2026-05-06 13:16 | 46.85214 | -3.99389 | 37993 ft | 452 kts | 29° |
| 2026-05-06 13:17 | 46.90598 | -3.94639 | 38001 ft | 452 kts | 29° |
| 2026-05-06 13:17 | 46.95942 | -3.89913 | 37992 ft | 452 kts | 29° |
| 2026-05-06 13:18 | 47.01327 | -3.85139 | 37987 ft | 452 kts | 29° |
| 2026-05-06 13:18 | 47.06714 | -3.80353 | 38002 ft | 452 kts | 30° |
| 2026-05-06 13:19 | 47.12081 | -3.75572 | 37995 ft | 452 kts | 30° |
| 2026-05-06 13:19 | 47.17467 | -3.70764 | 37997 ft | 453 kts | 30° |
| 2026-05-06 13:20 | 47.22843 | -3.65952 | 37977 ft | 452 kts | 30° |
| 2026-05-06 13:20 | 47.28184 | -3.61160 | 37985 ft | 452 kts | 30° |
| 2026-05-06 13:21 | 47.33544 | -3.56341 | 37974 ft | 452 kts | 30° |
| 2026-05-06 13:21 | 47.38914 | -3.51500 | 37968 ft | 452 kts | 30° |
| 2026-05-06 13:22 | 47.44284 | -3.46648 | 37959 ft | 452 kts | 30° |
| 2026-05-06 13:22 | 47.49648 | -3.41789 | 37967 ft | 452 kts | 30° |
| 2026-05-06 13:23 | 47.54975 | -3.36952 | 37966 ft | 452 kts | 30° |
| 2026-05-06 13:23 | 47.60339 | -3.32069 | 37966 ft | 452 kts | 30° |
| 2026-05-06 13:24 | 47.64830 | -3.27972 | 37971 ft | 452 kts | 30° |
| 2026-05-06 13:24 | 47.70164 | -3.23096 | 37971 ft | 453 kts | 30° |
| 2026-05-06 13:25 | 47.75512 | -3.18194 | 37953 ft | 452 kts | 30° |
| 2026-05-06 13:25 | 47.80866 | -3.13275 | 37971 ft | 452 kts | 30° |
| 2026-05-06 13:26 | 47.86226 | -3.08338 | 37960 ft | 452 kts | 30° |
| 2026-05-06 13:26 | 47.91581 | -3.03394 | 37961 ft | 452 kts | 30° |
| 2026-05-06 13:27 | 47.96899 | -2.98472 | 37961 ft | 453 kts | 31° |
| 2026-05-06 13:27 | 48.02248 | -2.93508 | 37962 ft | 453 kts | 31° |
| 2026-05-06 13:28 | 48.07599 | -2.88531 | 37967 ft | 453 kts | 31° |
| 2026-05-06 13:28 | 48.12950 | -2.83544 | 37960 ft | 452 kts | 31° |
| 2026-05-06 13:29 | 48.18282 | -2.78563 | 37952 ft | 453 kts | 31° |
| 2026-05-06 13:29 | 48.23631 | -2.73553 | 37960 ft | 453 kts | 31° |
| 2026-05-06 13:30 | 48.28933 | -2.68575 | 37965 ft | 453 kts | 31° |
| 2026-05-06 13:30 | 48.34279 | -2.63544 | 37967 ft | 453 kts | 31° |
| 2026-05-06 13:31 | 48.39610 | -2.58515 | 37966 ft | 453 kts | 31° |
| 2026-05-06 13:31 | 48.44932 | -2.53454 | 37962 ft | 453 kts | 34° |
| 2026-05-06 13:31 | 48.47285 | -2.50311 | 37963 ft | 452 kts | 47° |
| 2026-05-06 13:32 | 48.49444 | -2.46836 | 37951 ft | 455 kts | 45° |
| 2026-05-06 13:32 | 48.53811 | -2.39926 | 37971 ft | 455 kts | 45° |
| 2026-05-06 13:33 | 48.58125 | -2.33026 | 37968 ft | 455 kts | 46° |
| 2026-05-06 13:33 | 48.62471 | -2.26050 | 37952 ft | 455 kts | 46° |
| 2026-05-06 13:34 | 48.66808 | -2.19071 | 37972 ft | 455 kts | 46° |
| 2026-05-06 13:34 | 48.71146 | -2.12070 | 37970 ft | 455 kts | 46° |
| 2026-05-06 13:35 | 48.75430 | -2.05140 | 37957 ft | 455 kts | 46° |
| 2026-05-06 13:35 | 48.79757 | -1.98119 | 37979 ft | 455 kts | 46° |
| 2026-05-06 13:36 | 48.84084 | -1.91082 | 37971 ft | 455 kts | 46° |
| 2026-05-06 13:36 | 48.88771 | -1.84713 | 37995 ft | 451 kts | 32° |
| 2026-05-06 13:37 | 48.93919 | -1.79329 | 37969 ft | 453 kts | 33° |
| 2026-05-06 13:37 | 48.99121 | -1.73893 | 37979 ft | 454 kts | 33° |
| 2026-05-06 13:38 | 49.04330 | -1.68453 | 37983 ft | 455 kts | 33° |
| 2026-05-06 13:38 | 49.09555 | -1.62984 | 37983 ft | 455 kts | 33° |
| 2026-05-06 13:39 | 49.14757 | -1.57526 | 37982 ft | 455 kts | 33° |
| 2026-05-06 13:39 | 49.19980 | -1.52031 | 37983 ft | 455 kts | 33° |
| 2026-05-06 13:40 | 49.25200 | -1.46575 | 37985 ft | 455 kts | 29° |
| 2026-05-06 13:40 | 49.28057 | -1.44560 | 37974 ft | 450 kts | 16° |
| 2026-05-06 13:40 | 49.30999 | -1.43074 | 37973 ft | 453 kts | 19° |
| 2026-05-06 13:41 | 49.36878 | -1.39657 | 37997 ft | 453 kts | 19° |
| 2026-05-06 13:41 | 49.42778 | -1.36202 | 37988 ft | 453 kts | 19° |
| 2026-05-06 13:42 | 49.48664 | -1.32744 | 37988 ft | 453 kts | 19° |
| 2026-05-06 13:42 | 49.54573 | -1.29264 | 37995 ft | 454 kts | 20° |
| 2026-05-06 13:43 | 49.60454 | -1.25791 | 37993 ft | 454 kts | 20° |
| 2026-05-06 13:43 | 49.66345 | -1.22305 | 37955 ft | 449 kts | 20° |
| 2026-05-06 13:43 | 49.69230 | -1.20594 | 37607 ft | 441 kts | 20° |
| 2026-05-06 13:44 | 49.72088 | -1.18898 | 36967 ft | 440 kts | 20° |
| 2026-05-06 13:44 | 49.74908 | -1.17220 | 36338 ft | 439 kts | 20° |
| 2026-05-06 13:44 | 49.77752 | -1.15527 | 35813 ft | 436 kts | 20° |
| 2026-05-06 13:44 | 49.80575 | -1.13843 | 35356 ft | 432 kts | 20° |
| 2026-05-06 13:45 | 49.83354 | -1.12185 | 34879 ft | 428 kts | 20° |
| 2026-05-06 13:45 | 49.88872 | -1.08885 | 33878 ft | 422 kts | 20° |
| 2026-05-06 13:45 | 49.91608 | -1.07245 | 33300 ft | 419 kts | 20° |
| 2026-05-06 13:46 | 49.94318 | -1.05621 | 32798 ft | 416 kts | 20° |
| 2026-05-06 13:46 | 49.97000 | -1.04011 | 32344 ft | 411 kts | 20° |
| 2026-05-06 13:46 | 49.99655 | -1.02415 | 31894 ft | 407 kts | 20° |
| 2026-05-06 13:46 | 50.02259 | -1.00847 | 31445 ft | 404 kts | 20° |
| 2026-05-06 13:47 | 50.04857 | -0.99282 | 30990 ft | 400 kts | 20° |
| 2026-05-06 13:47 | 50.07447 | -0.97720 | 30553 ft | 397 kts | 20° |
| 2026-05-06 13:47 | 50.10025 | -0.96163 | 30117 ft | 395 kts | 20° |
| 2026-05-06 13:47 | 50.12581 | -0.94618 | 29614 ft | 392 kts | 20° |
| 2026-05-06 13:48 | 50.15111 | -0.93085 | 29169 ft | 388 kts | 20° |
| 2026-05-06 13:48 | 50.17619 | -0.91566 | 28755 ft | 384 kts | 20° |
| 2026-05-06 13:48 | 50.20100 | -0.90059 | 28356 ft | 380 kts | 20° |
| 2026-05-06 13:48 | 50.22559 | -0.88566 | 27944 ft | 377 kts | 20° |
| 2026-05-06 13:49 | 50.24960 | -0.87105 | 27548 ft | 374 kts | 20° |
| 2026-05-06 13:49 | 50.27371 | -0.85638 | 27158 ft | 371 kts | 20° |
| 2026-05-06 13:49 | 50.29790 | -0.84164 | 26766 ft | 368 kts | 20° |
| 2026-05-06 13:49 | 50.32183 | -0.82795 | 26353 ft | 365 kts | 12° |
| 2026-05-06 13:50 | 50.34660 | -0.82301 | 25916 ft | 362 kts | 2° |
| 2026-05-06 13:50 | 50.37151 | -0.81936 | 25568 ft | 359 kts | 4° |
| 2026-05-06 13:50 | 50.39635 | -0.81558 | 25201 ft | 356 kts | 4° |
| 2026-05-06 13:50 | 50.42099 | -0.81193 | 24832 ft | 354 kts | 4° |
| 2026-05-06 13:51 | 50.44527 | -0.80838 | 24467 ft | 353 kts | 4° |
| 2026-05-06 13:51 | 50.46970 | -0.80482 | 24099 ft | 351 kts | 4° |
| 2026-05-06 13:51 | 50.49399 | -0.80129 | 23732 ft | 349 kts | 4° |
| 2026-05-06 13:51 | 50.51816 | -0.79778 | 23331 ft | 348 kts | 4° |
| 2026-05-06 13:52 | 50.54217 | -0.79428 | 22927 ft | 346 kts | 4° |
| 2026-05-06 13:52 | 50.56612 | -0.79079 | 22553 ft | 343 kts | 4° |
| 2026-05-06 13:52 | 50.58948 | -0.78739 | 22202 ft | 340 kts | 4° |
| 2026-05-06 13:52 | 50.61293 | -0.78397 | 21852 ft | 337 kts | 4° |
| 2026-05-06 13:53 | 50.63619 | -0.78057 | 21441 ft | 336 kts | 4° |
| 2026-05-06 13:53 | 50.65939 | -0.77719 | 21105 ft | 333 kts | 3° |
| 2026-05-06 13:53 | 50.68230 | -0.77383 | 20776 ft | 329 kts | 3° |
| 2026-05-06 13:53 | 50.70507 | -0.77049 | 20439 ft | 327 kts | 3° |
| 2026-05-06 13:54 | 50.72766 | -0.76718 | 20099 ft | 324 kts | 3° |
| 2026-05-06 13:54 | 50.75006 | -0.76390 | 19766 ft | 322 kts | 3° |
| 2026-05-06 13:54 | 50.77234 | -0.76063 | 19432 ft | 320 kts | 3° |
| 2026-05-06 13:54 | 50.79436 | -0.75737 | 19103 ft | 318 kts | 3° |
| 2026-05-06 13:55 | 50.81605 | -0.75136 | 18893 ft | 320 kts | 17° |
| 2026-05-06 13:55 | 50.83684 | -0.73811 | 18732 ft | 323 kts | 20° |
| 2026-05-06 13:55 | 50.85770 | -0.72487 | 18574 ft | 323 kts | 20° |
| 2026-05-06 13:55 | 50.87850 | -0.71155 | 18407 ft | 322 kts | 20° |
| 2026-05-06 13:56 | 50.89923 | -0.69822 | 18237 ft | 321 kts | 20° |
| 2026-05-06 13:56 | 50.91995 | -0.68486 | 18052 ft | 320 kts | 20° |
| 2026-05-06 13:56 | 50.94055 | -0.67158 | 17886 ft | 319 kts | 19° |
| 2026-05-06 13:56 | 50.96105 | -0.65832 | 17705 ft | 318 kts | 20° |
| 2026-05-06 13:57 | 50.98155 | -0.64507 | 17544 ft | 317 kts | 19° |
| 2026-05-06 13:57 | 51.00196 | -0.63185 | 17365 ft | 316 kts | 20° |
| 2026-05-06 13:57 | 51.02216 | -0.61875 | 17224 ft | 315 kts | 20° |
| 2026-05-06 13:57 | 51.04244 | -0.60562 | 17059 ft | 314 kts | 20° |
| 2026-05-06 13:58 | 51.06266 | -0.59249 | 16900 ft | 313 kts | 20° |
| 2026-05-06 13:58 | 51.08266 | -0.57949 | 16739 ft | 312 kts | 20° |
| 2026-05-06 13:58 | 51.10270 | -0.56646 | 16576 ft | 311 kts | 20° |
| 2026-05-06 13:58 | 51.12272 | -0.55342 | 16415 ft | 310 kts | 20° |
| 2026-05-06 13:59 | 51.14271 | -0.54040 | 16253 ft | 309 kts | 19° |
| 2026-05-06 13:59 | 51.16253 | -0.52747 | 16097 ft | 308 kts | 20° |
| 2026-05-06 13:59 | 51.18212 | -0.51467 | 15937 ft | 307 kts | 20° |
| 2026-05-06 13:59 | 51.20189 | -0.50177 | 15775 ft | 306 kts | 20° |
| 2026-05-06 14:00 | 51.22158 | -0.48889 | 15627 ft | 305 kts | 20° |
| 2026-05-06 14:00 | 51.24116 | -0.47607 | 15461 ft | 304 kts | 20° |
| 2026-05-06 14:00 | 51.26069 | -0.46329 | 15303 ft | 303 kts | 20° |
| 2026-05-06 14:00 | 51.28020 | -0.45048 | 15139 ft | 302 kts | 20° |
| 2026-05-06 14:01 | 51.29965 | -0.43770 | 14988 ft | 301 kts | 19° |
| 2026-05-06 14:01 | 51.31904 | -0.42496 | 14831 ft | 300 kts | 20° |
| 2026-05-06 14:01 | 51.33834 | -0.41226 | 14686 ft | 299 kts | 20° |
| 2026-05-06 14:01 | 51.35763 | -0.39957 | 14519 ft | 300 kts | 19° |
| 2026-05-06 14:02 | 51.37667 | -0.38703 | 14371 ft | 299 kts | 20° |
| 2026-05-06 14:02 | 51.39593 | -0.37432 | 14205 ft | 299 kts | 20° |
| 2026-05-06 14:02 | 51.41520 | -0.36163 | 14062 ft | 298 kts | 19° |
| 2026-05-06 14:02 | 51.43331 | -0.34953 | 13910 ft | 298 kts | 22° |
| 2026-05-06 14:03 | 51.45203 | -0.33515 | 13728 ft | 297 kts | 23° |
| 2026-05-06 14:03 | 51.47061 | -0.32082 | 13553 ft | 296 kts | 23° |
| 2026-05-06 14:03 | 51.48858 | -0.30705 | 13399 ft | 295 kts | 23° |
| 2026-05-06 14:03 | 51.50709 | -0.29290 | 13254 ft | 294 kts | 22° |
| 2026-05-06 14:04 | 51.52552 | -0.27883 | 13100 ft | 293 kts | 23° |
| 2026-05-06 14:04 | 51.54394 | -0.26477 | 12952 ft | 292 kts | 23° |
| 2026-05-06 14:04 | 51.56227 | -0.25075 | 12791 ft | 291 kts | 22° |
| 2026-05-06 14:04 | 51.58029 | -0.23698 | 12648 ft | 290 kts | 22° |
| 2026-05-06 14:05 | 51.59858 | -0.22296 | 12555 ft | 290 kts | 22° |
| 2026-05-06 14:05 | 51.61361 | -0.21145 | 12418 ft | 290 kts | 22° |
| 2026-05-06 14:05 | 51.63178 | -0.19751 | 12270 ft | 288 kts | 22° |
| 2026-05-06 14:05 | 51.64993 | -0.18357 | 12131 ft | 288 kts | 22° |
| 2026-05-06 14:06 | 51.66805 | -0.16966 | 11970 ft | 287 kts | 22° |
| 2026-05-06 14:06 | 51.68577 | -0.15604 | 11822 ft | 285 kts | 23° |
| 2026-05-06 14:06 | 51.70244 | -0.14321 | 11685 ft | 285 kts | 22° |
| 2026-05-06 14:06 | 51.72035 | -0.12943 | 11541 ft | 284 kts | 22° |
| 2026-05-06 14:07 | 51.73815 | -0.11571 | 11390 ft | 283 kts | 23° |
| 2026-05-06 14:07 | 51.75606 | -0.10252 | 11231 ft | 282 kts | 21° |
| 2026-05-06 14:07 | 51.77409 | -0.09004 | 11068 ft | 281 kts | 20° |
| 2026-05-06 14:07 | 51.78738 | -0.08077 | 10964 ft | 280 kts | 21° |
| 2026-05-06 14:08 | 51.80529 | -0.06823 | 10818 ft | 280 kts | 20° |
| 2026-05-06 14:08 | 51.82308 | -0.05574 | 10680 ft | 279 kts | 20° |
| 2026-05-06 14:08 | 51.84026 | -0.04367 | 10446 ft | 278 kts | 20° |
| 2026-05-06 14:08 | 51.85235 | -0.03518 | 10071 ft | 283 kts | 21° |
| 2026-05-06 14:09 | 51.87039 | -0.02246 | 9743 ft | 281 kts | 20° |
| 2026-05-06 14:09 | 51.88820 | -0.00992 | 9442 ft | 278 kts | 21° |
| 2026-05-06 14:09 | 51.90965 | 0.01247 | 8921 ft | 281 kts | 45° |
| 2026-05-06 14:09 | 51.92228 | 0.03673 | 8450 ft | 285 kts | 49° |
| 2026-05-06 14:10 | 51.93497 | 0.06179 | 7946 ft | 290 kts | 49° |
| 2026-05-06 14:10 | 51.94375 | 0.07878 | 7598 ft | 293 kts | 49° |
| 2026-05-06 14:10 | 51.96111 | 0.11212 | 6944 ft | 297 kts | 49° |
| 2026-05-06 14:10 | 51.96911 | 0.13065 | 6611 ft | 299 kts | 63° |
| 2026-05-06 14:11 | 51.97445 | 0.16271 | 6120 ft | 302 kts | 86° |
| 2026-05-06 14:11 | 51.97111 | 0.19644 | 5600 ft | 307 kts | 110° |
| 2026-05-06 14:11 | 51.95959 | 0.22528 | 5076 ft | 312 kts | 134° |
| 2026-05-06 14:11 | 51.94176 | 0.24441 | 4612 ft | 308 kts | 158° |
| 2026-05-06 14:12 | 51.92134 | 0.25005 | 4178 ft | 298 kts | 183° |
| 2026-05-06 14:12 | 51.90182 | 0.24165 | 3767 ft | 287 kts | 210° |
| 2026-05-06 14:12 | 51.88668 | 0.22197 | 3374 ft | 275 kts | 230° |
| 2026-05-06 14:12 | 51.87428 | 0.19893 | 3051 ft | 268 kts | 232° |
| 2026-05-06 14:13 | 51.86236 | 0.17644 | 2730 ft | 267 kts | 232° |
| 2026-05-06 14:13 | 51.85038 | 0.15380 | 2524 ft | 265 kts | 232° |
| 2026-05-06 14:13 | 51.83855 | 0.13127 | 2503 ft | 267 kts | 236° |
| 2026-05-06 14:13 | 51.82760 | 0.10692 | 2508 ft | 266 kts | 238° |
| 2026-05-06 14:14 | 51.81685 | 0.08258 | 2505 ft | 266 kts | 239° |
| 2026-05-06 14:14 | 51.80818 | 0.05658 | 2497 ft | 263 kts | 249° |
| 2026-05-06 14:14 | 51.80113 | 0.02926 | 2502 ft | 263 kts | 251° |
| 2026-05-06 14:14 | 51.79445 | 0.00215 | 2497 ft | 263 kts | 251° |
| 2026-05-06 14:15 | 51.78760 | -0.02519 | 2540 ft | 262 kts | 251° |
| 2026-05-06 14:15 | 51.78018 | -0.05223 | 2527 ft | 265 kts | 239° |
| 2026-05-06 14:15 | 51.76695 | -0.07267 | 2542 ft | 268 kts | 210° |
| 2026-05-06 14:15 | 51.74927 | -0.08242 | 2552 ft | 270 kts | 192° |
| 2026-05-06 14:16 | 51.73206 | -0.08433 | 2529 ft | 269 kts | 170° |
| 2026-05-06 14:16 | 51.71513 | -0.07370 | 2539 ft | 265 kts | 144° |
| 2026-05-06 14:16 | 51.70842 | -0.06516 | 2549 ft | 264 kts | 135° |
| 2026-05-06 14:19 | 51.70657 | -0.06239 | 2552 ft | 263 kts | 134° |
| 2026-05-06 14:19 | 51.69611 | -0.03947 | 2549 ft | 250 kts | 110° |
| 2026-05-06 14:19 | 51.69321 | -0.01337 | 2535 ft | 229 kts | 81° |
| 2026-05-06 14:19 | 51.69817 | 0.00968 | 2507 ft | 216 kts | 51° |
| 2026-05-06 14:20 | 51.70946 | 0.02490 | 2503 ft | 212 kts | 24° |
| 2026-05-06 14:20 | 51.72330 | 0.03355 | 2503 ft | 214 kts | 19° |
| 2026-05-06 14:20 | 51.73645 | 0.04140 | 2506 ft | 213 kts | 19° |
| 2026-05-06 14:20 | 51.75013 | 0.05022 | 2498 ft | 213 kts | 22° |
| 2026-05-06 14:21 | 51.76312 | 0.06061 | 2505 ft | 214 kts | 27° |
| 2026-05-06 14:21 | 51.77595 | 0.07357 | 2510 ft | 214 kts | 34° |
| 2026-05-06 14:21 | 51.78744 | 0.08886 | 2501 ft | 213 kts | 39° |
| 2026-05-06 14:21 | 51.79843 | 0.10512 | 2458 ft | 215 kts | 40° |
| 2026-05-06 14:22 | 51.80945 | 0.12170 | 2207 ft | 217 kts | 40° |
| 2026-05-06 14:22 | 51.82046 | 0.13817 | 1953 ft | 209 kts | 39° |
| 2026-05-06 14:22 | 51.83048 | 0.15321 | 1668 ft | 187 kts | 39° |
| 2026-05-06 14:22 | 51.83956 | 0.16679 | 1409 ft | 169 kts | 39° |
| 2026-05-06 14:23 | 51.84767 | 0.17894 | 1213 ft | 148 kts | 39° |
| 2026-05-06 14:23 | 51.85498 | 0.18989 | 1053 ft | 140 kts | 37° |
| 2026-05-06 14:23 | 51.86206 | 0.20044 | 797 ft | 138 kts | 39° |
| 2026-05-06 14:23 | 51.86943 | 0.21122 | 716 ft | 147 kts | 40° |
| 2026-05-06 14:24 | 51.87670 | 0.22238 | 409 ft | 140 kts | 39° |
| 2026-05-06 14:24 | 51.88314 | 0.23190 | 336 ft | 106 kts | 42° |
| 2026-05-06 14:24 | 51.88689 | 0.23759 | 348 ft | 41 kts | 44° |
| 2026-05-06 14:24 | 51.88808 | 0.23970 | 348 ft | 23 kts | 56° |
| 2026-05-06 14:25 | 51.88872 | 0.24195 | 353 ft | 22 kts | 71° |
| 2026-05-06 14:25 | 51.88917 | 0.24434 | 356 ft | 18 kts | 76° |
| 2026-05-06 14:25 | 51.88928 | 0.24609 | 361 ft | 17 kts | 44° |
| 2026-05-06 14:25 | 51.89019 | 0.24747 | 357 ft | 19 kts | 42° |
| 2026-05-06 14:26 | 51.89124 | 0.24900 | 358 ft | 21 kts | 41° |
| 2026-05-06 14:26 | 51.89226 | 0.25069 | 356 ft | 19 kts | 58° |
| 2026-05-06 14:26 | 51.89211 | 0.25225 | 357 ft | 15 kts | 135° |
| 2026-05-06 14:26 | 51.89213 | 0.25334 | 359 ft | 9 kts | 44° |
| 2026-05-06 14:27 | 51.89265 | 0.25414 | 358 ft | 12 kts | 43° |
| 2026-05-06 14:27 | 51.89330 | 0.25515 | 361 ft | 14 kts | 57° |
| 2026-05-06 14:27 | 51.89295 | 0.25654 | 359 ft | 15 kts | 133° |
| 2026-05-06 14:27 | 51.89239 | 0.25702 | 358 ft | 2 kts | 204° |
| 2026-05-06 14:28 | 51.89236 | 0.25695 | 359 ft | 0 kts | 235° |
| 2026-05-06 14:30 | 51.89232 | 0.25687 | 361 ft | 2 kts | 235° |
| 2026-05-06 14:30 | 51.89223 | 0.25666 | 361 ft | 3 kts | 226° |
| 2026-05-06 14:30 | 51.89214 | 0.25654 | 359 ft | 1 kts | 223° |
| 2026-05-06 14:31 | 51.89213 | 0.25653 | 357 ft | 0 kts | 223° |
| 2026-05-06 14:31 | 51.89214 | 0.25653 | 357 ft | 0 kts | 223° |